sensor_id;sensor_type;location;lat;lon;timestamp;P1;durP1;ratioP1;P2;durP2;ratioP2
59512;SDS011;45330;51.634;5.562;2023-08-01T00:02:03;23.20;;;11.52;;
59512;SDS011;45330;51.634;5.562;2023-08-01T00:04:28;23.85;;;11.55;;
59512;SDS011;45330;51.634;5.562;2023-08-01T00:06:54;23.98;;;11.15;;
59512;SDS011;45330;51.634;5.562;2023-08-01T00:09:20;23.75;;;10.77;;
59512;SDS011;45330;51.634;5.562;2023-08-01T00:11:46;26.17;;;10.82;;
59512;SDS011;45330;51.634;5.562;2023-08-01T00:14:11;22.83;;;9.98;;
59512;SDS011;45330;51.634;5.562;2023-08-01T00:16:36;21.75;;;10.13;;
59512;SDS011;45330;51.634;5.562;2023-08-01T00:19:02;23.20;;;10.55;;
59512;SDS011;45330;51.634;5.562;2023-08-01T00:21:27;23.13;;;10.07;;
59512;SDS011;45330;51.634;5.562;2023-08-01T00:23:53;24.70;;;10.68;;
59512;SDS011;45330;51.634;5.562;2023-08-01T00:26:18;23.02;;;10.60;;
59512;SDS011;45330;51.634;5.562;2023-08-01T00:28:43;24.27;;;11.05;;
59512;SDS011;45330;51.634;5.562;2023-08-01T00:31:09;23.52;;;10.27;;
59512;SDS011;45330;51.634;5.562;2023-08-01T00:33:34;23.27;;;10.63;;
59512;SDS011;45330;51.634;5.562;2023-08-01T00:36:00;22.67;;;10.45;;
59512;SDS011;45330;51.634;5.562;2023-08-01T00:38:26;23.80;;;10.85;;
59512;SDS011;45330;51.634;5.562;2023-08-01T00:40:52;22.20;;;10.88;;
59512;SDS011;45330;51.634;5.562;2023-08-01T00:43:17;24.63;;;10.85;;
59512;SDS011;45330;51.634;5.562;2023-08-01T00:45:42;24.92;;;11.48;;
59512;SDS011;45330;51.634;5.562;2023-08-01T00:48:08;23.58;;;10.45;;
59512;SDS011;45330;51.634;5.562;2023-08-01T00:50:33;22.73;;;10.77;;
59512;SDS011;45330;51.634;5.562;2023-08-01T00:52:59;20.15;;;9.70;;
59512;SDS011;45330;51.634;5.562;2023-08-01T00:55:25;20.67;;;9.60;;
59512;SDS011;45330;51.634;5.562;2023-08-01T00:57:52;22.00;;;9.23;;
59512;SDS011;45330;51.634;5.562;2023-08-01T01:00:18;19.92;;;8.82;;
59512;SDS011;45330;51.634;5.562;2023-08-01T01:02:43;24.15;;;9.00;;
59512;SDS011;45330;51.634;5.562;2023-08-01T01:05:09;21.17;;;8.82;;
59512;SDS011;45330;51.634;5.562;2023-08-01T01:07:35;19.88;;;8.38;;
59512;SDS011;45330;51.634;5.562;2023-08-01T01:10:02;20.17;;;7.63;;
59512;SDS011;45330;51.634;5.562;2023-08-01T01:12:27;19.77;;;8.30;;
59512;SDS011;45330;51.634;5.562;2023-08-01T01:14:52;21.35;;;7.65;;
59512;SDS011;45330;51.634;5.562;2023-08-01T01:17:18;19.65;;;8.13;;
59512;SDS011;45330;51.634;5.562;2023-08-01T01:19:43;19.70;;;7.60;;
59512;SDS011;45330;51.634;5.562;2023-08-01T01:22:09;19.80;;;7.97;;
59512;SDS011;45330;51.634;5.562;2023-08-01T01:24:36;19.63;;;7.65;;
59512;SDS011;45330;51.634;5.562;2023-08-01T01:27:03;20.63;;;8.32;;
59512;SDS011;45330;51.634;5.562;2023-08-01T01:29:30;19.05;;;7.38;;
59512;SDS011;45330;51.634;5.562;2023-08-01T01:31:58;19.65;;;7.20;;
59512;SDS011;45330;51.634;5.562;2023-08-01T01:34:25;18.33;;;6.78;;
59512;SDS011;45330;51.634;5.562;2023-08-01T01:36:51;22.80;;;7.90;;
59512;SDS011;45330;51.634;5.562;2023-08-01T01:39:16;20.10;;;8.05;;
59512;SDS011;45330;51.634;5.562;2023-08-01T01:41:41;21.92;;;8.05;;
59512;SDS011;45330;51.634;5.562;2023-08-01T01:44:07;19.75;;;7.43;;
59512;SDS011;45330;51.634;5.562;2023-08-01T01:46:32;22.27;;;7.90;;
59512;SDS011;45330;51.634;5.562;2023-08-01T01:48:58;20.83;;;8.05;;
59512;SDS011;45330;51.634;5.562;2023-08-01T01:51:25;20.83;;;8.27;;
59512;SDS011;45330;51.634;5.562;2023-08-01T01:53:51;23.35;;;8.48;;
59512;SDS011;45330;51.634;5.562;2023-08-01T01:56:16;22.55;;;8.95;;
59512;SDS011;45330;51.634;5.562;2023-08-01T01:58:42;20.90;;;8.95;;
59512;SDS011;45330;51.634;5.562;2023-08-01T02:01:07;21.38;;;8.70;;
59512;SDS011;45330;51.634;5.562;2023-08-01T02:03:32;22.98;;;9.35;;
59512;SDS011;45330;51.634;5.562;2023-08-01T02:05:58;21.88;;;9.68;;
59512;SDS011;45330;51.634;5.562;2023-08-01T02:08:23;22.90;;;9.32;;
59512;SDS011;45330;51.634;5.562;2023-08-01T02:10:48;21.63;;;9.65;;
59512;SDS011;45330;51.634;5.562;2023-08-01T02:13:14;22.00;;;9.68;;
59512;SDS011;45330;51.634;5.562;2023-08-01T02:15:39;21.42;;;9.48;;
59512;SDS011;45330;51.634;5.562;2023-08-01T02:18:05;22.77;;;9.40;;
59512;SDS011;45330;51.634;5.562;2023-08-01T02:20:30;22.90;;;9.75;;
59512;SDS011;45330;51.634;5.562;2023-08-01T02:22:56;22.25;;;9.10;;
59512;SDS011;45330;51.634;5.562;2023-08-01T02:25:22;22.77;;;9.48;;
59512;SDS011;45330;51.634;5.562;2023-08-01T02:27:47;25.55;;;9.77;;
59512;SDS011;45330;51.634;5.562;2023-08-01T02:30:12;25.33;;;9.73;;
59512;SDS011;45330;51.634;5.562;2023-08-01T02:32:38;24.55;;;10.25;;
59512;SDS011;45330;51.634;5.562;2023-08-01T02:35:03;24.58;;;9.63;;
59512;SDS011;45330;51.634;5.562;2023-08-01T02:37:29;26.83;;;10.30;;
59512;SDS011;45330;51.634;5.562;2023-08-01T02:39:54;23.75;;;10.15;;
59512;SDS011;45330;51.634;5.562;2023-08-01T02:42:20;26.13;;;10.75;;
59512;SDS011;45330;51.634;5.562;2023-08-01T02:44:45;25.30;;;10.70;;
59512;SDS011;45330;51.634;5.562;2023-08-01T02:47:11;23.65;;;10.05;;
59512;SDS011;45330;51.634;5.562;2023-08-01T02:49:36;22.90;;;10.10;;
59512;SDS011;45330;51.634;5.562;2023-08-01T02:52:01;25.77;;;10.48;;
59512;SDS011;45330;51.634;5.562;2023-08-01T02:54:27;23.95;;;10.15;;
59512;SDS011;45330;51.634;5.562;2023-08-01T02:56:52;24.50;;;9.80;;
59512;SDS011;45330;51.634;5.562;2023-08-01T02:59:18;24.80;;;10.23;;
59512;SDS011;45330;51.634;5.562;2023-08-01T03:01:43;26.88;;;10.40;;
59512;SDS011;45330;51.634;5.562;2023-08-01T03:04:09;24.00;;;10.88;;
59512;SDS011;45330;51.634;5.562;2023-08-01T03:06:36;26.38;;;10.27;;
59512;SDS011;45330;51.634;5.562;2023-08-01T03:09:02;26.05;;;11.40;;
59512;SDS011;45330;51.634;5.562;2023-08-01T03:11:28;25.00;;;11.23;;
59512;SDS011;45330;51.634;5.562;2023-08-01T03:13:53;28.52;;;12.25;;
59512;SDS011;45330;51.634;5.562;2023-08-01T03:16:18;28.10;;;13.05;;
59512;SDS011;45330;51.634;5.562;2023-08-01T03:18:44;26.00;;;12.93;;
59512;SDS011;45330;51.634;5.562;2023-08-01T03:21:09;31.15;;;14.18;;
59512;SDS011;45330;51.634;5.562;2023-08-01T03:23:36;28.65;;;13.75;;
59512;SDS011;45330;51.634;5.562;2023-08-01T03:26:02;30.75;;;15.68;;
59512;SDS011;45330;51.634;5.562;2023-08-01T03:28:27;30.98;;;15.02;;
59512;SDS011;45330;51.634;5.562;2023-08-01T03:30:53;31.08;;;16.08;;
59512;SDS011;45330;51.634;5.562;2023-08-01T03:33:19;33.83;;;17.65;;
59512;SDS011;45330;51.634;5.562;2023-08-01T03:35:45;33.40;;;16.52;;
59512;SDS011;45330;51.634;5.562;2023-08-01T03:38:11;33.03;;;16.92;;
59512;SDS011;45330;51.634;5.562;2023-08-01T03:40:36;36.70;;;19.00;;
59512;SDS011;45330;51.634;5.562;2023-08-01T03:43:02;35.97;;;18.83;;
59512;SDS011;45330;51.634;5.562;2023-08-01T03:45:27;35.60;;;18.85;;
59512;SDS011;45330;51.634;5.562;2023-08-01T03:47:52;35.28;;;19.15;;
59512;SDS011;45330;51.634;5.562;2023-08-01T03:50:18;37.58;;;19.38;;
59512;SDS011;45330;51.634;5.562;2023-08-01T03:52:43;35.47;;;19.00;;
59512;SDS011;45330;51.634;5.562;2023-08-01T03:55:10;33.65;;;18.27;;
59512;SDS011;45330;51.634;5.562;2023-08-01T03:57:35;32.45;;;17.88;;
59512;SDS011;45330;51.634;5.562;2023-08-01T04:00:01;34.05;;;18.75;;
59512;SDS011;45330;51.634;5.562;2023-08-01T04:02:28;33.10;;;17.77;;
59512;SDS011;45330;51.634;5.562;2023-08-01T04:04:53;33.17;;;19.85;;
59512;SDS011;45330;51.634;5.562;2023-08-01T04:07:18;34.72;;;18.95;;
59512;SDS011;45330;51.634;5.562;2023-08-01T04:09:44;37.42;;;19.77;;
59512;SDS011;45330;51.634;5.562;2023-08-01T04:12:09;35.72;;;19.40;;
59512;SDS011;45330;51.634;5.562;2023-08-01T04:14:34;38.78;;;20.35;;
59512;SDS011;45330;51.634;5.562;2023-08-01T04:17:01;38.80;;;20.20;;
59512;SDS011;45330;51.634;5.562;2023-08-01T04:19:26;37.67;;;20.08;;
59512;SDS011;45330;51.634;5.562;2023-08-01T04:21:52;38.83;;;20.63;;
59512;SDS011;45330;51.634;5.562;2023-08-01T04:24:17;36.22;;;19.45;;
59512;SDS011;45330;51.634;5.562;2023-08-01T04:26:42;39.35;;;20.02;;
59512;SDS011;45330;51.634;5.562;2023-08-01T04:29:08;35.03;;;20.45;;
59512;SDS011;45330;51.634;5.562;2023-08-01T04:31:33;41.85;;;21.08;;
59512;SDS011;45330;51.634;5.562;2023-08-01T04:33:58;37.47;;;21.08;;
59512;SDS011;45330;51.634;5.562;2023-08-01T04:36:24;37.03;;;20.40;;
59512;SDS011;45330;51.634;5.562;2023-08-01T04:38:49;36.28;;;21.08;;
59512;SDS011;45330;51.634;5.562;2023-08-01T04:41:15;37.05;;;20.08;;
59512;SDS011;45330;51.634;5.562;2023-08-01T04:43:40;35.72;;;19.90;;
59512;SDS011;45330;51.634;5.562;2023-08-01T04:46:06;34.70;;;18.65;;
59512;SDS011;45330;51.634;5.562;2023-08-01T04:48:31;34.50;;;18.30;;
59512;SDS011;45330;51.634;5.562;2023-08-01T04:50:57;35.40;;;19.70;;
59512;SDS011;45330;51.634;5.562;2023-08-01T04:53:22;33.63;;;19.33;;
59512;SDS011;45330;51.634;5.562;2023-08-01T04:55:47;37.58;;;20.40;;
59512;SDS011;45330;51.634;5.562;2023-08-01T04:58:13;35.40;;;20.25;;
59512;SDS011;45330;51.634;5.562;2023-08-01T05:00:40;35.70;;;19.15;;
59512;SDS011;45330;51.634;5.562;2023-08-01T05:03:06;33.55;;;18.70;;
59512;SDS011;45330;51.634;5.562;2023-08-01T05:05:32;31.15;;;17.67;;
59512;SDS011;45330;51.634;5.562;2023-08-01T05:07:57;30.77;;;17.80;;
59512;SDS011;45330;51.634;5.562;2023-08-01T05:10:22;30.98;;;17.23;;
59512;SDS011;45330;51.634;5.562;2023-08-01T05:12:48;28.58;;;16.15;;
59512;SDS011;45330;51.634;5.562;2023-08-01T05:15:13;26.52;;;15.48;;
59512;SDS011;45330;51.634;5.562;2023-08-01T05:17:38;24.70;;;13.90;;
59512;SDS011;45330;51.634;5.562;2023-08-01T05:20:04;26.75;;;14.45;;
59512;SDS011;45330;51.634;5.562;2023-08-01T05:22:30;25.02;;;13.30;;
59512;SDS011;45330;51.634;5.562;2023-08-01T05:24:55;26.13;;;14.32;;
59512;SDS011;45330;51.634;5.562;2023-08-01T05:27:21;26.13;;;13.98;;
59512;SDS011;45330;51.634;5.562;2023-08-01T05:29:46;25.27;;;13.80;;
59512;SDS011;45330;51.634;5.562;2023-08-01T05:32:11;27.13;;;13.65;;
59512;SDS011;45330;51.634;5.562;2023-08-01T05:34:37;27.00;;;14.23;;
59512;SDS011;45330;51.634;5.562;2023-08-01T05:37:02;27.73;;;14.40;;
59512;SDS011;45330;51.634;5.562;2023-08-01T05:39:28;23.58;;;12.38;;
59512;SDS011;45330;51.634;5.562;2023-08-01T05:41:53;26.48;;;12.82;;
59512;SDS011;45330;51.634;5.562;2023-08-01T05:44:18;23.40;;;11.23;;
59512;SDS011;45330;51.634;5.562;2023-08-01T05:46:44;24.35;;;10.63;;
59512;SDS011;45330;51.634;5.562;2023-08-01T05:49:09;21.08;;;9.85;;
59512;SDS011;45330;51.634;5.562;2023-08-01T05:51:35;22.90;;;8.57;;
59512;SDS011;45330;51.634;5.562;2023-08-01T05:54:00;19.88;;;8.38;;
59512;SDS011;45330;51.634;5.562;2023-08-01T05:56:25;20.27;;;8.63;;
59512;SDS011;45330;51.634;5.562;2023-08-01T05:58:51;21.58;;;8.90;;
59512;SDS011;45330;51.634;5.562;2023-08-01T06:01:16;23.08;;;8.93;;
59512;SDS011;45330;51.634;5.562;2023-08-01T06:03:42;23.30;;;9.48;;
59512;SDS011;45330;51.634;5.562;2023-08-01T06:06:07;20.85;;;9.00;;
59512;SDS011;45330;51.634;5.562;2023-08-01T06:08:33;21.52;;;9.05;;
59512;SDS011;45330;51.634;5.562;2023-08-01T06:10:58;22.17;;;9.63;;
59512;SDS011;45330;51.634;5.562;2023-08-01T06:13:24;22.17;;;9.50;;
59512;SDS011;45330;51.634;5.562;2023-08-01T06:15:49;20.60;;;9.27;;
59512;SDS011;45330;51.634;5.562;2023-08-01T06:18:14;22.85;;;9.23;;
59512;SDS011;45330;51.634;5.562;2023-08-01T06:20:40;21.17;;;8.93;;
59512;SDS011;45330;51.634;5.562;2023-08-01T06:23:05;20.23;;;8.50;;
59512;SDS011;45330;51.634;5.562;2023-08-01T06:25:31;21.55;;;8.90;;
59512;SDS011;45330;51.634;5.562;2023-08-01T06:27:56;22.50;;;9.30;;
59512;SDS011;45330;51.634;5.562;2023-08-01T06:30:21;19.73;;;8.15;;
59512;SDS011;45330;51.634;5.562;2023-08-01T06:32:47;20.98;;;8.48;;
59512;SDS011;45330;51.634;5.562;2023-08-01T06:35:12;20.67;;;8.18;;
59512;SDS011;45330;51.634;5.562;2023-08-01T06:37:37;20.63;;;7.40;;
59512;SDS011;45330;51.634;5.562;2023-08-01T06:40:03;20.58;;;7.32;;
59512;SDS011;45330;51.634;5.562;2023-08-01T06:42:29;19.15;;;7.28;;
59512;SDS011;45330;51.634;5.562;2023-08-01T06:44:54;18.73;;;6.70;;
59512;SDS011;45330;51.634;5.562;2023-08-01T06:47:20;17.38;;;6.38;;
59512;SDS011;45330;51.634;5.562;2023-08-01T06:49:45;16.25;;;6.13;;
59512;SDS011;45330;51.634;5.562;2023-08-01T06:52:10;16.65;;;6.03;;
59512;SDS011;45330;51.634;5.562;2023-08-01T06:54:36;18.90;;;6.45;;
59512;SDS011;45330;51.634;5.562;2023-08-01T06:57:01;15.70;;;6.15;;
59512;SDS011;45330;51.634;5.562;2023-08-01T06:59:27;17.95;;;7.10;;
59512;SDS011;45330;51.634;5.562;2023-08-01T07:01:52;17.80;;;6.35;;
59512;SDS011;45330;51.634;5.562;2023-08-01T07:04:17;17.70;;;6.75;;
59512;SDS011;45330;51.634;5.562;2023-08-01T07:06:43;18.17;;;6.88;;
59512;SDS011;45330;51.634;5.562;2023-08-01T07:09:08;20.25;;;6.57;;
59512;SDS011;45330;51.634;5.562;2023-08-01T07:11:35;19.63;;;6.40;;
59512;SDS011;45330;51.634;5.562;2023-08-01T07:14:00;17.63;;;6.57;;
59512;SDS011;45330;51.634;5.562;2023-08-01T07:16:26;17.67;;;5.88;;
59512;SDS011;45330;51.634;5.562;2023-08-01T07:18:51;18.40;;;5.60;;
59512;SDS011;45330;51.634;5.562;2023-08-01T07:21:16;18.45;;;5.63;;
59512;SDS011;45330;51.634;5.562;2023-08-01T07:23:42;17.67;;;5.63;;
59512;SDS011;45330;51.634;5.562;2023-08-01T07:26:08;16.02;;;5.13;;
59512;SDS011;45330;51.634;5.562;2023-08-01T07:28:34;16.80;;;5.20;;
59512;SDS011;45330;51.634;5.562;2023-08-01T07:31:00;16.05;;;4.72;;
59512;SDS011;45330;51.634;5.562;2023-08-01T07:33:30;19.25;;;5.53;;
59512;SDS011;45330;51.634;5.562;2023-08-01T07:35:56;16.83;;;4.82;;
59512;SDS011;45330;51.634;5.562;2023-08-01T07:38:22;15.35;;;4.57;;
59512;SDS011;45330;51.634;5.562;2023-08-01T07:40:47;16.50;;;4.72;;
59512;SDS011;45330;51.634;5.562;2023-08-01T07:43:13;16.88;;;5.10;;
59512;SDS011;45330;51.634;5.562;2023-08-01T07:45:38;17.40;;;5.50;;
59512;SDS011;45330;51.634;5.562;2023-08-01T07:48:03;17.13;;;5.40;;
59512;SDS011;45330;51.634;5.562;2023-08-01T07:50:29;14.93;;;4.63;;
59512;SDS011;45330;51.634;5.562;2023-08-01T07:52:55;19.55;;;5.28;;
59512;SDS011;45330;51.634;5.562;2023-08-01T07:55:20;15.50;;;5.00;;
59512;SDS011;45330;51.634;5.562;2023-08-01T07:57:46;19.90;;;5.20;;
59512;SDS011;45330;51.634;5.562;2023-08-01T08:00:12;13.48;;;4.57;;
59512;SDS011;45330;51.634;5.562;2023-08-01T08:02:38;16.77;;;5.15;;
59512;SDS011;45330;51.634;5.562;2023-08-01T08:05:03;16.52;;;4.45;;
59512;SDS011;45330;51.634;5.562;2023-08-01T08:07:30;15.50;;;4.72;;
59512;SDS011;45330;51.634;5.562;2023-08-01T08:09:55;15.00;;;4.93;;
59512;SDS011;45330;51.634;5.562;2023-08-01T08:12:22;15.68;;;5.30;;
59512;SDS011;45330;51.634;5.562;2023-08-01T08:14:48;15.20;;;5.93;;
59512;SDS011;45330;51.634;5.562;2023-08-01T08:17:13;17.10;;;5.07;;
59512;SDS011;45330;51.634;5.562;2023-08-01T08:19:39;14.73;;;4.65;;
59512;SDS011;45330;51.634;5.562;2023-08-01T08:22:04;15.32;;;4.53;;
59512;SDS011;45330;51.634;5.562;2023-08-01T08:24:30;15.20;;;4.32;;
59512;SDS011;45330;51.634;5.562;2023-08-01T08:26:55;15.35;;;4.57;;
59512;SDS011;45330;51.634;5.562;2023-08-01T08:29:21;13.10;;;3.95;;
59512;SDS011;45330;51.634;5.562;2023-08-01T08:31:46;15.40;;;4.38;;
59512;SDS011;45330;51.634;5.562;2023-08-01T08:34:12;13.80;;;4.05;;
59512;SDS011;45330;51.634;5.562;2023-08-01T08:36:38;13.40;;;4.00;;
59512;SDS011;45330;51.634;5.562;2023-08-01T08:39:03;12.32;;;4.07;;
59512;SDS011;45330;51.634;5.562;2023-08-01T08:41:30;16.08;;;4.10;;
59512;SDS011;45330;51.634;5.562;2023-08-01T08:44:01;14.63;;;3.92;;
59512;SDS011;45330;51.634;5.562;2023-08-01T08:46:27;16.85;;;4.45;;
59512;SDS011;45330;51.634;5.562;2023-08-01T08:48:57;15.05;;;4.25;;
59512;SDS011;45330;51.634;5.562;2023-08-01T08:51:26;15.13;;;3.83;;
59512;SDS011;45330;51.634;5.562;2023-08-01T08:53:53;15.70;;;4.20;;
59512;SDS011;45330;51.634;5.562;2023-08-01T08:56:19;16.27;;;4.20;;
59512;SDS011;45330;51.634;5.562;2023-08-01T08:58:45;12.55;;;4.30;;
59512;SDS011;45330;51.634;5.562;2023-08-01T09:01:12;14.50;;;3.97;;
59512;SDS011;45330;51.634;5.562;2023-08-01T09:03:38;16.25;;;4.50;;
59512;SDS011;45330;51.634;5.562;2023-08-01T09:06:21;14.07;;;4.63;;
59512;SDS011;45330;51.634;5.562;2023-08-01T09:08:51;13.55;;;3.88;;
59512;SDS011;45330;51.634;5.562;2023-08-01T09:11:20;16.13;;;3.88;;
59512;SDS011;45330;51.634;5.562;2023-08-01T09:13:46;10.60;;;3.40;;
59512;SDS011;45330;51.634;5.562;2023-08-01T09:16:12;14.70;;;3.97;;
59512;SDS011;45330;51.634;5.562;2023-08-01T09:18:51;13.05;;;3.40;;
59512;SDS011;45330;51.634;5.562;2023-08-01T09:21:21;11.18;;;3.28;;
59512;SDS011;45330;51.634;5.562;2023-08-01T09:23:46;11.38;;;3.97;;
59512;SDS011;45330;51.634;5.562;2023-08-01T09:26:14;12.30;;;3.95;;
59512;SDS011;45330;51.634;5.562;2023-08-01T09:28:41;13.80;;;3.80;;
59512;SDS011;45330;51.634;5.562;2023-08-01T09:31:06;12.82;;;4.00;;
59512;SDS011;45330;51.634;5.562;2023-08-01T09:33:38;14.30;;;3.92;;
59512;SDS011;45330;51.634;5.562;2023-08-01T09:36:05;13.25;;;3.67;;
59512;SDS011;45330;51.634;5.562;2023-08-01T09:38:33;13.63;;;3.78;;
59512;SDS011;45330;51.634;5.562;2023-08-01T09:41:02;13.68;;;4.20;;
59512;SDS011;45330;51.634;5.562;2023-08-01T09:43:34;14.48;;;4.10;;
59512;SDS011;45330;51.634;5.562;2023-08-01T09:46:01;17.63;;;4.50;;
59512;SDS011;45330;51.634;5.562;2023-08-01T09:48:27;14.10;;;4.00;;
59512;SDS011;45330;51.634;5.562;2023-08-01T09:51:11;14.38;;;4.28;;
59512;SDS011;45330;51.634;5.562;2023-08-01T09:53:47;11.18;;;3.88;;
59512;SDS011;45330;51.634;5.562;2023-08-01T09:58:47;13.20;;;3.47;;
59512;SDS011;45330;51.634;5.562;2023-08-01T10:01:17;14.65;;;4.00;;
59512;SDS011;45330;51.634;5.562;2023-08-01T10:03:45;17.17;;;4.03;;
59512;SDS011;45330;51.634;5.562;2023-08-01T10:08:47;14.18;;;3.30;;
59512;SDS011;45330;51.634;5.562;2023-08-01T10:11:14;13.25;;;3.00;;
59512;SDS011;45330;51.634;5.562;2023-08-01T10:13:42;10.63;;;2.90;;
59512;SDS011;45330;51.634;5.562;2023-08-01T10:16:08;12.18;;;3.13;;
59512;SDS011;45330;51.634;5.562;2023-08-01T10:18:34;11.85;;;3.17;;
59512;SDS011;45330;51.634;5.562;2023-08-01T10:21:03;11.70;;;3.25;;
59512;SDS011;45330;51.634;5.562;2023-08-01T10:23:30;12.70;;;3.20;;
59512;SDS011;45330;51.634;5.562;2023-08-01T10:25:58;12.35;;;3.20;;
59512;SDS011;45330;51.634;5.562;2023-08-01T10:28:31;14.40;;;3.30;;
59512;SDS011;45330;51.634;5.562;2023-08-01T10:31:21;11.65;;;3.30;;
59512;SDS011;45330;51.634;5.562;2023-08-01T10:33:48;12.48;;;3.50;;
59512;SDS011;45330;51.634;5.562;2023-08-01T10:36:21;13.27;;;3.78;;
59512;SDS011;45330;51.634;5.562;2023-08-01T10:38:49;10.82;;;3.47;;
59512;SDS011;45330;51.634;5.562;2023-08-01T10:41:25;14.63;;;3.33;;
59512;SDS011;45330;51.634;5.562;2023-08-01T10:44:10;13.80;;;3.45;;
59512;SDS011;45330;51.634;5.562;2023-08-01T10:49:13;13.63;;;3.42;;
59512;SDS011;45330;51.634;5.562;2023-08-01T10:51:39;13.10;;;3.55;;
59512;SDS011;45330;51.634;5.562;2023-08-01T10:54:05;13.70;;;3.30;;
59512;SDS011;45330;51.634;5.562;2023-08-01T10:56:30;13.98;;;3.63;;
59512;SDS011;45330;51.634;5.562;2023-08-01T10:58:59;12.15;;;3.13;;
59512;SDS011;45330;51.634;5.562;2023-08-01T11:01:24;13.13;;;3.60;;
59512;SDS011;45330;51.634;5.562;2023-08-01T11:03:51;12.75;;;3.13;;
59512;SDS011;45330;51.634;5.562;2023-08-01T11:06:17;11.35;;;3.10;;
59512;SDS011;45330;51.634;5.562;2023-08-01T11:08:42;11.93;;;3.25;;
59512;SDS011;45330;51.634;5.562;2023-08-01T11:11:11;10.02;;;3.15;;
59512;SDS011;45330;51.634;5.562;2023-08-01T11:13:38;12.43;;;3.15;;
59512;SDS011;45330;51.634;5.562;2023-08-01T11:16:03;12.52;;;3.15;;
59512;SDS011;45330;51.634;5.562;2023-08-01T11:18:39;11.85;;;3.10;;
59512;SDS011;45330;51.634;5.562;2023-08-01T11:21:08;16.52;;;3.30;;
59512;SDS011;45330;51.634;5.562;2023-08-01T11:23:33;12.35;;;2.90;;
59512;SDS011;45330;51.634;5.562;2023-08-01T11:26:01;16.00;;;3.45;;
59512;SDS011;45330;51.634;5.562;2023-08-01T11:28:32;13.73;;;3.20;;
59512;SDS011;45330;51.634;5.562;2023-08-01T11:30:58;13.98;;;3.42;;
59512;SDS011;45330;51.634;5.562;2023-08-01T11:33:23;11.00;;;3.05;;
59512;SDS011;45330;51.634;5.562;2023-08-01T11:38:25;13.52;;;3.45;;
59512;SDS011;45330;51.634;5.562;2023-08-01T11:40:54;11.75;;;2.90;;
59512;SDS011;45330;51.634;5.562;2023-08-01T11:43:21;11.25;;;3.00;;
59512;SDS011;45330;51.634;5.562;2023-08-01T11:45:52;10.90;;;2.80;;
59512;SDS011;45330;51.634;5.562;2023-08-01T11:48:23;11.88;;;2.90;;
59512;SDS011;45330;51.634;5.562;2023-08-01T11:50:56;10.60;;;2.50;;
59512;SDS011;45330;51.634;5.562;2023-08-01T11:53:26;9.15;;;2.70;;
59512;SDS011;45330;51.634;5.562;2023-08-01T11:55:51;11.13;;;2.90;;
59512;SDS011;45330;51.634;5.562;2023-08-01T11:58:33;14.35;;;3.00;;
59512;SDS011;45330;51.634;5.562;2023-08-01T12:01:07;9.48;;;1.90;;
59512;SDS011;45330;51.634;5.562;2023-08-01T12:03:44;11.90;;;2.30;;
59512;SDS011;45330;51.634;5.562;2023-08-01T12:06:14;12.88;;;2.40;;
59512;SDS011;45330;51.634;5.562;2023-08-01T12:08:44;9.30;;;2.40;;
59512;SDS011;45330;51.634;5.562;2023-08-01T12:13:43;7.70;;;2.28;;
59512;SDS011;45330;51.634;5.562;2023-08-01T12:16:09;9.82;;;2.30;;
59512;SDS011;45330;51.634;5.562;2023-08-01T12:18:34;6.85;;;2.50;;
59512;SDS011;45330;51.634;5.562;2023-08-01T12:21:02;9.07;;;2.50;;
59512;SDS011;45330;51.634;5.562;2023-08-01T12:23:30;9.93;;;2.65;;
59512;SDS011;45330;51.634;5.562;2023-08-01T12:25:56;12.65;;;2.78;;
59512;SDS011;45330;51.634;5.562;2023-08-01T12:28:21;8.90;;;2.40;;
59512;SDS011;45330;51.634;5.562;2023-08-01T12:30:46;12.65;;;2.83;;
59512;SDS011;45330;51.634;5.562;2023-08-01T12:33:12;8.75;;;2.63;;
59512;SDS011;45330;51.634;5.562;2023-08-01T12:35:40;9.70;;;2.40;;
59512;SDS011;45330;51.634;5.562;2023-08-01T12:38:06;10.20;;;2.60;;
59512;SDS011;45330;51.634;5.562;2023-08-01T12:40:32;11.18;;;2.88;;
59512;SDS011;45330;51.634;5.562;2023-08-01T12:42:57;10.15;;;2.47;;
59512;SDS011;45330;51.634;5.562;2023-08-01T12:45:23;10.00;;;2.40;;
59512;SDS011;45330;51.634;5.562;2023-08-01T12:47:48;11.30;;;2.33;;
59512;SDS011;45330;51.634;5.562;2023-08-01T12:50:14;10.32;;;2.70;;
59512;SDS011;45330;51.634;5.562;2023-08-01T12:52:40;10.88;;;2.70;;
59512;SDS011;45330;51.634;5.562;2023-08-01T12:55:05;12.07;;;2.60;;
59512;SDS011;45330;51.634;5.562;2023-08-01T12:57:31;10.90;;;2.45;;
59512;SDS011;45330;51.634;5.562;2023-08-01T12:59:56;11.75;;;2.60;;
59512;SDS011;45330;51.634;5.562;2023-08-01T13:02:22;11.57;;;3.00;;
59512;SDS011;45330;51.634;5.562;2023-08-01T13:04:47;9.85;;;2.60;;
59512;SDS011;45330;51.634;5.562;2023-08-01T13:07:12;12.02;;;3.03;;
59512;SDS011;45330;51.634;5.562;2023-08-01T13:09:38;7.50;;;2.22;;
59512;SDS011;45330;51.634;5.562;2023-08-01T13:12:04;8.93;;;2.38;;
59512;SDS011;45330;51.634;5.562;2023-08-01T13:14:31;10.45;;;2.53;;
59512;SDS011;45330;51.634;5.562;2023-08-01T13:16:56;13.27;;;2.80;;
59512;SDS011;45330;51.634;5.562;2023-08-01T13:19:23;10.70;;;2.63;;
59512;SDS011;45330;51.634;5.562;2023-08-01T13:21:48;9.73;;;2.70;;
59512;SDS011;45330;51.634;5.562;2023-08-01T13:24:13;14.35;;;3.15;;
59512;SDS011;45330;51.634;5.562;2023-08-01T13:26:39;9.68;;;2.60;;
59512;SDS011;45330;51.634;5.562;2023-08-01T13:29:04;9.98;;;2.88;;
59512;SDS011;45330;51.634;5.562;2023-08-01T13:31:29;14.60;;;3.05;;
59512;SDS011;45330;51.634;5.562;2023-08-01T13:33:55;9.23;;;2.47;;
59512;SDS011;45330;51.634;5.562;2023-08-01T13:36:20;13.07;;;2.85;;
59512;SDS011;45330;51.634;5.562;2023-08-01T13:38:46;12.93;;;2.80;;
59512;SDS011;45330;51.634;5.562;2023-08-01T13:41:12;7.63;;;2.47;;
59512;SDS011;45330;51.634;5.562;2023-08-01T13:43:37;8.30;;;2.30;;
59512;SDS011;45330;51.634;5.562;2023-08-01T13:46:12;9.60;;;2.50;;
59512;SDS011;45330;51.634;5.562;2023-08-01T13:48:42;7.72;;;2.30;;
59512;SDS011;45330;51.634;5.562;2023-08-01T13:51:08;13.15;;;2.60;;
59512;SDS011;45330;51.634;5.562;2023-08-01T13:53:34;10.45;;;2.80;;
59512;SDS011;45330;51.634;5.562;2023-08-01T13:56:05;7.65;;;2.10;;
59512;SDS011;45330;51.634;5.562;2023-08-01T13:58:40;7.22;;;2.28;;
59512;SDS011;45330;51.634;5.562;2023-08-01T14:01:07;10.48;;;2.38;;
59512;SDS011;45330;51.634;5.562;2023-08-01T14:03:34;12.63;;;2.47;;
59512;SDS011;45330;51.634;5.562;2023-08-01T14:06:06;12.93;;;3.00;;
59512;SDS011;45330;51.634;5.562;2023-08-01T14:08:37;10.70;;;2.72;;
59512;SDS011;45330;51.634;5.562;2023-08-01T14:11:04;11.35;;;2.75;;
59512;SDS011;45330;51.634;5.562;2023-08-01T14:13:31;10.50;;;2.42;;
59512;SDS011;45330;51.634;5.562;2023-08-01T14:15:57;9.02;;;2.40;;
59512;SDS011;45330;51.634;5.562;2023-08-01T14:18:23;6.70;;;2.00;;
59512;SDS011;45330;51.634;5.562;2023-08-01T14:20:49;10.00;;;2.65;;
59512;SDS011;45330;51.634;5.562;2023-08-01T14:23:14;10.10;;;2.22;;
59512;SDS011;45330;51.634;5.562;2023-08-01T14:25:40;9.27;;;2.30;;
59512;SDS011;45330;51.634;5.562;2023-08-01T14:28:05;8.70;;;2.20;;
59512;SDS011;45330;51.634;5.562;2023-08-01T14:30:31;12.65;;;2.70;;
59512;SDS011;45330;51.634;5.562;2023-08-01T14:33:04;8.63;;;2.05;;
59512;SDS011;45330;51.634;5.562;2023-08-01T14:35:31;10.57;;;2.45;;
59512;SDS011;45330;51.634;5.562;2023-08-01T14:37:58;8.02;;;2.20;;
59512;SDS011;45330;51.634;5.562;2023-08-01T14:40:23;9.15;;;2.17;;